Time;durP1;ratioP1;P1;durP2;ratioP2;P2;SDS_P1;SDS_P2;PMS_P1;PMS_P2;Temp;Humidity;BMP_temperature;BMP_pressure;BME280_temperature;BME280_humidity;BME280_pressure;Samples;Min_cycle;Max_cycle;Signal;HPM_P1;HPM_P2
2023/04/09 00:00:46;;;;;;;;;29.75;27.75;;;;;;;;5051335;28;11644;-85
2023/04/09 00:03:13;;;;;;;;;30.50;30.50;;;;;;;;5051122;28;11522;-82
2023/04/09 00:05:41;;;;;;;;;31.50;29.00;;;;;;;;5040355;28;11781;-83
2023/04/09 00:08:08;;;;;;;;;26.00;22.75;;;;;;;;5050862;28;11554;-86
2023/04/09 00:10:36;;;;;;;;;31.50;25.25;;;;;;;;5050302;28;11533;-86
2023/04/09 00:13:03;;;;;;;;;19.25;19.25;;;;;;;;5051187;28;11660;-85
2023/04/09 00:15:31;;;;;;;;;24.25;23.25;;;;;;;;5050175;28;12297;-85
2023/04/09 00:17:59;;;;;;;;;29.75;26.00;;;;;;;;5051717;28;11656;-87
2023/04/09 00:20:26;;;;;;;;;31.00;28.75;;;;;;;;5054451;28;11667;-82
2023/04/09 00:22:55;;;;;;;;;32.00;26.00;;;;;;;;5053853;28;11668;-83
2023/04/09 00:25:22;;;;;;;;;37.50;31.50;;;;;;;;5051173;28;11611;-84
2023/04/09 00:27:49;;;;;;;;;27.75;24.75;;;;;;;;5050651;28;11690;-82
2023/04/09 00:30:17;;;;;;;;;21.50;21.25;;;;;;;;5049309;28;11621;-84
2023/04/09 00:32:45;;;;;;;;;34.25;32.25;;;;;;;;5049986;28;12343;-82
2023/04/09 00:35:13;;;;;;;;;39.75;33.25;;;;;;;;5049408;28;11540;-82
2023/04/09 00:37:40;;;;;;;;;41.50;37.00;;;;;;;;5049814;28;11706;-82
2023/04/09 00:40:08;;;;;;;;;31.75;30.75;;;;;;;;5050460;28;11537;-83
2023/04/09 00:42:36;;;;;;;;;27.75;25.50;;;;;;;;5050298;28;11558;-82
2023/04/09 00:45:04;;;;;;;;;28.75;28.75;;;;;;;;5039080;28;11553;-86
2023/04/09 00:47:32;;;;;;;;;30.25;25.50;;;;;;;;5052514;28;11616;-86
2023/04/09 00:50:01;;;;;;;;;27.00;24.25;;;;;;;;5056742;28;11673;-85
2023/04/09 00:52:29;;;;;;;;;31.25;25.75;;;;;;;;5055298;28;11535;-84
2023/04/09 00:54:58;;;;;;;;;28.50;28.50;;;;;;;;5050770;28;11562;-86
2023/04/09 00:57:25;;;;;;;;;24.75;23.00;;;;;;;;5042603;28;11575;-87
2023/04/09 00:59:52;;;;;;;;;28.50;25.00;;;;;;;;5047715;28;11468;-87
2023/04/09 01:02:19;;;;;;;;;29.00;28.00;;;;;;;;5050143;28;11490;-85
2023/04/09 01:04:47;;;;;;;;;32.00;28.25;;;;;;;;5049113;28;11579;-85
2023/04/09 01:07:22;;;;;;;;;29.50;25.75;;;;;;;;5049024;28;11556;-86
2023/04/09 01:09:54;;;;;;;;;28.75;24.00;;;;;;;;5049944;28;11711;-86
2023/04/09 01:12:29;;;;;;;;;31.75;28.50;;;;;;;;5050467;28;11532;-84
2023/04/09 01:15:02;;;;;;;;;26.33;20.33;;;;;;;;5050011;28;11565;-86
2023/04/09 01:17:35;;;;;;;;;27.75;23.50;;;;;;;;5052399;28;12524;-86
2023/04/09 01:20:05;;;;;;;;;34.25;30.25;;;;;;;;5055052;28;11660;-85
2023/04/09 01:22:49;;;;;;;;;33.25;30.75;;;;;;;;5053161;28;11543;-86
2023/04/09 01:25:29;;;;;;;;;31.75;30.00;;;;;;;;5050088;28;11582;-86
2023/04/09 01:28:12;;;;;;;;;25.00;21.25;;;;;;;;5038679;28;11561;-86
2023/04/09 01:30:40;;;;;;;;;28.00;27.75;;;;;;;;5049061;28;11618;-87
2023/04/09 01:33:07;;;;;;;;;25.75;24.25;;;;;;;;5049499;28;11624;-88
2023/04/09 01:35:35;;;;;;;;;36.00;29.00;;;;;;;;5050349;28;11552;-88
2023/04/09 01:38:03;;;;;;;;;37.25;28.00;;;;;;;;5048919;28;11581;-85
2023/04/09 01:40:30;;;;;;;;;38.25;34.25;;;;;;;;5050943;28;11725;-84
2023/04/09 01:42:59;;;;;;;;;34.25;32.50;;;;;;;;5053754;28;11634;-86
2023/04/09 01:45:27;;;;;;;;;37.25;32.00;;;;;;;;5049407;28;11690;-85
2023/04/09 01:47:56;;;;;;;;;36.50;31.00;;;;;;;;5053335;28;11625;-88
2023/04/09 01:50:23;;;;;;;;;43.50;38.50;;;;;;;;5053923;28;11692;-86
2023/04/09 01:52:51;;;;;;;;;39.00;33.25;;;;;;;;5050676;28;11608;-85
2023/04/09 01:55:18;;;;;;;;;29.67;26.33;;;;;;;;5038790;28;11571;-86
2023/04/09 01:57:46;;;;;;;;;28.75;27.75;;;;;;;;5047649;28;11629;-87
2023/04/09 02:00:14;;;;;;;;;33.50;28.25;;;;;;;;5048320;28;11633;-86
2023/04/09 02:02:48;;;;;;;;;40.75;37.25;;;;;;;;5048050;28;11622;-83
2023/04/09 02:05:18;;;;;;;;;41.25;34.00;;;;;;;;5048752;28;11657;-86
2023/04/09 02:07:48;;;;;;;;;31.25;27.25;;;;;;;;5036659;28;11734;-86
2023/04/09 02:10:16;;;;;;;;;32.25;27.75;;;;;;;;5048751;28;11638;-87
2023/04/09 02:12:48;;;;;;;;;32.75;27.25;;;;;;;;5048762;28;11633;-87
2023/04/09 02:15:15;;;;;;;;;28.50;23.25;;;;;;;;5051596;28;11535;-85
2023/04/09 02:17:44;;;;;;;;;32.75;32.75;;;;;;;;5055009;28;11562;-84
2023/04/09 02:20:12;;;;;;;;;33.75;29.00;;;;;;;;5052851;28;11699;-86
2023/04/09 02:22:39;;;;;;;;;29.75;26.25;;;;;;;;5049122;28;11554;-84
2023/04/09 02:25:07;;;;;;;;;26.25;23.00;;;;;;;;5030966;28;11558;-86
2023/04/09 02:27:34;;;;;;;;;31.50;29.25;;;;;;;;5048864;28;11719;-87
2023/04/09 02:30:02;;;;;;;;;37.00;29.25;;;;;;;;5048050;28;11606;-88
2023/04/09 02:32:30;;;;;;;;;35.75;25.50;;;;;;;;5047485;28;11537;-86
2023/04/09 02:34:59;;;;;;;;;31.25;26.25;;;;;;;;5048250;28;11584;-88
2023/04/09 02:37:26;;;;;;;;;26.25;25.25;;;;;;;;5048837;28;11568;-86
2023/04/09 02:39:53;;;;;;;;;22.50;22.50;;;;;;;;5048166;28;11587;-84
2023/04/09 02:42:21;;;;;;;;;40.00;27.75;;;;;;;;5049101;28;11599;-87
2023/04/09 02:44:48;;;;;;;;;27.50;23.75;;;;;;;;5052349;28;11593;-86
2023/04/09 02:47:15;;;;;;;;;41.75;33.25;;;;;;;;5055030;28;11729;-86
2023/04/09 02:49:42;;;;;;;;;26.00;22.00;;;;;;;;5052617;28;11560;-88
2023/04/09 02:52:11;;;;;;;;;36.25;27.50;;;;;;;;5048910;28;11534;-88
2023/04/09 02:54:39;;;;;;;;;19.25;15.00;;;;;;;;5047744;28;11685;-87
2023/04/09 02:57:06;;;;;;;;;28.25;23.50;;;;;;;;5048921;28;11728;-83
2023/04/09 02:59:34;;;;;;;;;27.25;27.00;;;;;;;;5047735;28;11680;-85
2023/04/09 03:02:02;;;;;;;;;22.25;22.25;;;;;;;;5048304;28;11499;-88
2023/04/09 03:04:29;;;;;;;;;37.00;31.00;;;;;;;;5048949;28;11593;-88
2023/04/09 03:06:56;;;;;;;;;38.00;34.50;;;;;;;;5047289;28;11542;-88
2023/04/09 03:09:25;;;;;;;;;34.00;26.25;;;;;;;;5048455;28;11704;-88
2023/04/09 03:11:55;;;;;;;;;27.75;25.00;;;;;;;;5049122;28;11575;-87
2023/04/09 03:14:22;;;;;;;;;29.50;29.50;;;;;;;;5060266;28;12349;-86
2023/04/09 03:16:49;;;;;;;;;22.25;22.25;;;;;;;;5057967;28;11729;-83
2023/04/09 03:19:16;;;;;;;;;32.50;30.00;;;;;;;;5053035;28;11557;-87
2023/04/09 03:21:45;;;;;;;;;19.50;17.25;;;;;;;;5047549;28;11568;-87
2023/04/09 03:24:12;;;;;;;;;24.25;20.75;;;;;;;;5052457;28;12442;-87
2023/04/09 03:26:41;;;;;;;;;24.25;24.25;;;;;;;;5052236;28;11669;-87
2023/04/09 03:29:08;;;;;;;;;32.25;27.75;;;;;;;;5049522;28;12375;-87
2023/04/09 03:31:35;;;;;;;;;28.25;25.00;;;;;;;;5053349;28;11620;-84
2023/04/09 03:34:02;;;;;;;;;29.00;22.00;;;;;;;;5057007;28;11553;-87
2023/04/09 03:36:30;;;;;;;;;29.75;27.50;;;;;;;;5046803;28;11605;-86
2023/04/09 03:38:59;;;;;;;;;33.00;30.50;;;;;;;;5053286;28;11564;-85
2023/04/09 03:41:26;;;;;;;;;35.75;30.50;;;;;;;;5052875;28;11663;-83
2023/04/09 03:43:55;;;;;;;;;33.75;32.50;;;;;;;;5051333;28;11826;-82
2023/04/09 03:46:23;;;;;;;;;38.25;34.25;;;;;;;;5053253;28;11553;-86
2023/04/09 03:48:51;;;;;;;;;33.00;29.00;;;;;;;;5050911;28;11696;-86
2023/04/09 03:51:18;;;;;;;;;42.00;33.25;;;;;;;;5050517;28;12330;-87
2023/04/09 03:53:46;;;;;;;;;31.00;28.50;;;;;;;;5050604;28;11577;-88
2023/04/09 03:56:13;;;;;;;;;32.75;28.75;;;;;;;;5051171;28;11580;-88
2023/04/09 03:58:40;;;;;;;;;36.75;30.00;;;;;;;;5050834;28;11570;-89
2023/04/09 04:01:09;;;;;;;;;39.25;30.75;;;;;;;;5049684;28;11466;-88
2023/04/09 04:03:36;;;;;;;;;35.75;33.00;;;;;;;;5051017;28;11596;-88
2023/04/09 04:06:04;;;;;;;;;30.50;27.75;;;;;;;;5050497;28;11553;-89
2023/04/09 04:08:31;;;;;;;;;35.25;28.00;;;;;;;;5051539;28;11607;-89
2023/04/09 04:11:04;;;;;;;;;29.50;24.25;;;;;;;;5052983;28;11626;-80
2023/04/09 04:13:31;;;;;;;;;24.50;24.50;;;;;;;;5053602;28;11545;-84
2023/04/09 04:15:59;;;;;;;;;28.75;19.75;;;;;;;;5052789;28;11708;-83
2023/04/09 04:18:27;;;;;;;;;26.75;24.00;;;;;;;;5049989;28;11558;-82
2023/04/09 04:20:54;;;;;;;;;28.75;23.25;;;;;;;;5050166;28;11490;-83
2023/04/09 04:23:22;;;;;;;;;26.50;25.50;;;;;;;;5049144;28;12157;-82
2023/04/09 04:25:51;;;;;;;;;33.75;30.50;;;;;;;;5044381;28;11608;-81
2023/04/09 04:28:19;;;;;;;;;38.25;33.50;;;;;;;;5048350;28;11682;-82
2023/04/09 04:30:46;;;;;;;;;31.00;27.00;;;;;;;;5049082;28;11484;-87
2023/04/09 04:33:13;;;;;;;;;35.75;26.50;;;;;;;;5043887;28;11591;-86
2023/04/09 04:35:42;;;;;;;;;30.75;30.75;;;;;;;;5050314;28;11563;-86
2023/04/09 04:38:09;;;;;;;;;31.25;27.25;;;;;;;;5050561;28;11547;-86
2023/04/09 04:40:36;;;;;;;;;24.00;21.50;;;;;;;;5056120;28;11668;-86
2023/04/09 04:43:03;;;;;;;;;34.50;32.00;;;;;;;;5055330;28;11629;-86
2023/04/09 04:45:31;;;;;;;;;27.25;24.50;;;;;;;;5052307;28;11554;-86
2023/04/09 04:47:58;;;;;;;;;23.50;22.25;;;;;;;;5049923;28;11556;-83
2023/04/09 04:50:25;;;;;;;;;29.25;24.50;;;;;;;;5049756;28;11561;-86
2023/04/09 04:52:54;;;;;;;;;27.25;24.50;;;;;;;;5049239;28;11697;-83
2023/04/09 04:55:21;;;;;;;;;38.50;32.50;;;;;;;;5049643;28;11565;-82
2023/04/09 04:57:50;;;;;;;;;31.75;28.75;;;;;;;;5049381;28;11692;-85
2023/04/09 05:00:17;;;;;;;;;28.50;27.00;;;;;;;;5048902;28;11557;-84
2023/04/09 05:02:44;;;;;;;;;32.25;28.25;;;;;;;;5049654;28;11604;-83
2023/04/09 05:05:12;;;;;;;;;27.50;25.25;;;;;;;;5049413;28;11603;-84
2023/04/09 05:07:39;;;;;;;;;34.75;28.25;;;;;;;;5049273;28;11674;-73
2023/04/09 05:10:09;;;;;;;;;17.50;16.00;;;;;;;;5049799;28;11696;-74
2023/04/09 05:12:36;;;;;;;;;30.00;30.00;;;;;;;;5048628;28;12374;-72
2023/04/09 05:15:04;;;;;;;;;26.25;21.25;;;;;;;;5048761;28;11621;-69
2023/04/09 05:17:31;;;;;;;;;24.75;23.50;;;;;;;;5037105;28;11553;-71
2023/04/09 05:19:59;;;;;;;;;23.25;19.00;;;;;;;;5048959;28;11574;-70
2023/04/09 05:22:26;;;;;;;;;29.50;25.50;;;;;;;;5037758;28;11556;-72
2023/04/09 05:24:53;;;;;;;;;38.50;26.50;;;;;;;;5049725;28;11634;-72
2023/04/09 05:27:24;;;;;;;;;26.00;23.00;;;;;;;;5053187;28;11591;-70
2023/04/09 05:29:51;;;;;;;;;34.67;28.00;;;;;;;;5038739;28;11570;-72
2023/04/09 05:32:19;;;;;;;;;28.25;23.25;;;;;;;;5049550;28;11494;-70
2023/04/09 05:34:46;;;;;;;;;29.00;29.00;;;;;;;;5047487;28;11521;-70
2023/04/09 05:37:13;;;;;;;;;26.00;24.00;;;;;;;;5046898;28;11995;-70
2023/04/09 05:39:40;;;;;;;;;21.50;19.25;;;;;;;;5042826;28;11555;-70
2023/04/09 05:42:07;;;;;;;;;33.00;30.25;;;;;;;;5040039;28;11582;-71
2023/04/09 05:44:36;;;;;;;;;34.25;32.00;;;;;;;;5047988;28;11579;-71
2023/04/09 05:47:03;;;;;;;;;32.00;26.75;;;;;;;;5047595;28;11568;-69
2023/04/09 05:49:31;;;;;;;;;25.25;21.75;;;;;;;;5048592;28;11551;-70
2023/04/09 05:51:58;;;;;;;;;33.00;24.50;;;;;;;;5047932;28;11532;-70
2023/04/09 05:54:25;;;;;;;;;35.25;30.25;;;;;;;;5048231;28;11697;-69
2023/04/09 05:56:52;;;;;;;;;40.75;34.25;;;;;;;;5047334;28;11641;-69
2023/04/09 05:59:20;;;;;;;;;29.75;27.50;;;;;;;;5047469;28;11581;-70
2023/04/09 06:01:48;;;;;;;;;29.00;26.75;;;;;;;;5046301;28;11507;-70
2023/04/09 06:04:15;;;;;;;;;27.75;26.00;;;;;;;;5047559;28;11565;-69
2023/04/09 06:06:43;;;;;;;;;26.50;23.75;;;;;;;;5046382;28;11531;-71
2023/04/09 06:09:10;;;;;;;;;32.00;25.00;;;;;;;;5043447;28;11602;-70
2023/04/09 06:11:37;;;;;;;;;36.00;31.50;;;;;;;;5045321;28;11578;-71
2023/04/09 06:14:04;;;;;;;;;27.75;27.75;;;;;;;;5045826;28;12339;-70
2023/04/09 06:16:32;;;;;;;;;32.50;31.75;;;;;;;;5047649;28;11530;-71
2023/04/09 06:19:01;;;;;;;;;38.25;33.75;;;;;;;;5047572;28;11554;-72
2023/04/09 06:21:28;;;;;;;;;41.50;38.00;;;;;;;;5047696;28;11538;-70
2023/04/09 06:23:55;;;;;;;;;36.00;33.50;;;;;;;;5047100;28;11788;-72
2023/04/09 06:26:23;;;;;;;;;38.00;34.00;;;;;;;;5046916;28;11548;-73
2023/04/09 06:28:51;;;;;;;;;35.00;33.25;;;;;;;;5046772;28;11567;-72
2023/04/09 06:31:18;;;;;;;;;58.33;47.00;;;;;;;;5046968;28;11504;-72
2023/04/09 06:33:45;;;;;;;;;77.67;60.33;;;;;;;;5037786;28;11600;-73
2023/04/09 06:36:14;;;;;;;;;55.00;43.00;;;;;;;;5047489;28;8834;-72
2023/04/09 06:38:41;;;;;;;;;44.00;39.50;;;;;;;;5047413;28;11545;-73
2023/04/09 06:41:11;;;;;;;;;35.50;33.25;;;;;;;;5046742;28;11551;-75
2023/04/09 06:43:38;;;;;;;;;36.75;35.50;;;;;;;;5047039;28;11564;-73
2023/04/09 06:46:05;;;;;;;;;37.25;35.00;;;;;;;;5046547;28;11497;-70
2023/04/09 06:48:33;;;;;;;;;39.00;36.00;;;;;;;;5046418;28;11584;-69
2023/04/09 06:51:00;;;;;;;;;33.00;29.50;;;;;;;;5043258;28;11578;-70
2023/04/09 06:53:28;;;;;;;;;42.50;35.75;;;;;;;;5037945;28;11665;-72
2023/04/09 06:55:56;;;;;;;;;32.50;29.75;;;;;;;;5035013;28;11719;-72
2023/04/09 06:58:23;;;;;;;;;41.00;32.50;;;;;;;;5047172;28;12443;-71
2023/04/09 07:00:50;;;;;;;;;43.00;37.50;;;;;;;;5045879;28;11626;-73
2023/04/09 07:03:17;;;;;;;;;42.50;35.50;;;;;;;;5046991;28;11548;-73
2023/04/09 07:05:45;;;;;;;;;38.50;35.00;;;;;;;;5045815;28;11553;-72
2023/04/09 07:08:12;;;;;;;;;47.75;39.25;;;;;;;;5048165;28;11576;-73
2023/04/09 07:10:41;;;;;;;;;39.25;35.00;;;;;;;;5047338;28;12450;-73
2023/04/09 07:13:08;;;;;;;;;42.50;39.00;;;;;;;;5047874;28;11539;-76
2023/04/09 07:15:35;;;;;;;;;52.25;42.75;;;;;;;;5047752;28;12448;-75
2023/04/09 07:18:02;;;;;;;;;40.25;38.00;;;;;;;;5049187;28;11559;-74
2023/04/09 07:20:29;;;;;;;;;49.00;40.75;;;;;;;;5051255;28;11526;-76
2023/04/09 07:22:57;;;;;;;;;42.75;38.25;;;;;;;;5040464;28;11632;-74
2023/04/09 07:25:24;;;;;;;;;42.25;37.00;;;;;;;;5047925;28;11636;-73
2023/04/09 07:27:52;;;;;;;;;34.75;32.00;;;;;;;;5046758;28;11690;-73
2023/04/09 07:30:20;;;;;;;;;44.00;38.75;;;;;;;;5033796;28;11562;-75
2023/04/09 07:32:47;;;;;;;;;46.00;39.25;;;;;;;;5033227;28;11855;-75
2023/04/09 07:35:14;;;;;;;;;50.00;40.75;;;;;;;;5045784;28;11601;-73
2023/04/09 07:37:42;;;;;;;;;49.50;38.75;;;;;;;;5040676;28;11674;-74
2023/04/09 07:40:09;;;;;;;;;48.50;41.00;;;;;;;;5046395;28;11589;-72
2023/04/09 07:42:38;;;;;;;;;51.25;39.50;;;;;;;;5045928;28;11668;-72
2023/04/09 07:45:08;;;;;;;;;51.50;39.75;;;;;;;;5046617;28;11622;-72
2023/04/09 07:47:35;;;;;;;;;49.00;41.25;;;;;;;;5046026;28;11668;-72
2023/04/09 07:50:02;;;;;;;;;48.00;38.00;;;;;;;;5046377;28;11557;-74
2023/04/09 07:52:29;;;;;;;;;44.75;39.75;;;;;;;;5046485;28;11537;-73
2023/04/09 07:54:56;;;;;;;;;48.75;39.25;;;;;;;;5046230;28;11565;-71
2023/04/09 07:57:24;;;;;;;;;50.75;42.00;;;;;;;;5046537;28;11554;-72
2023/04/09 07:59:52;;;;;;;;;44.00;38.00;;;;;;;;5046972;28;12338;-72
2023/04/09 08:02:21;;;;;;;;;44.50;37.50;;;;;;;;5048987;28;11470;-71
2023/04/09 08:04:49;;;;;;;;;42.50;38.75;;;;;;;;5044483;28;12387;-72
2023/04/09 08:07:16;;;;;;;;;47.75;39.00;;;;;;;;5045955;28;11644;-72
2023/04/09 08:09:43;;;;;;;;;39.50;33.50;;;;;;;;5050006;28;11540;-71
2023/04/09 08:12:10;;;;;;;;;51.75;40.75;;;;;;;;5049416;28;11724;-71
2023/04/09 08:14:38;;;;;;;;;48.25;38.25;;;;;;;;5049816;28;11555;-72
2023/04/09 08:17:05;;;;;;;;;45.75;39.25;;;;;;;;5049292;28;11572;-73
2023/04/09 08:19:34;;;;;;;;;53.50;44.25;;;;;;;;5049536;28;12431;-72
2023/04/09 08:22:02;;;;;;;;;52.75;44.00;;;;;;;;5047227;28;11571;-75
2023/04/09 08:24:29;;;;;;;;;50.25;38.25;;;;;;;;5049726;28;11674;-77
2023/04/09 08:26:56;;;;;;;;;44.75;38.25;;;;;;;;5049591;28;12380;-73
2023/04/09 08:29:23;;;;;;;;;44.75;38.25;;;;;;;;5049308;28;11521;-74
2023/04/09 08:31:51;;;;;;;;;50.25;41.25;;;;;;;;5048954;28;11441;-73
2023/04/09 08:34:19;;;;;;;;;48.00;40.50;;;;;;;;5049197;28;11569;-74
2023/04/09 08:36:48;;;;;;;;;53.25;42.75;;;;;;;;5049205;28;12268;-73
2023/04/09 08:39:17;;;;;;;;;40.75;36.50;;;;;;;;5049135;28;11532;-74
2023/04/09 08:41:48;;;;;;;;;50.75;40.25;;;;;;;;5049466;28;11573;-72
2023/04/09 08:44:16;;;;;;;;;46.75;38.75;;;;;;;;5049116;28;12250;-73
2023/04/09 08:46:43;;;;;;;;;52.50;42.00;;;;;;;;5049013;28;11571;-75
2023/04/09 08:49:11;;;;;;;;;47.75;39.00;;;;;;;;5049099;28;11524;-74
2023/04/09 08:51:39;;;;;;;;;39.00;35.25;;;;;;;;5049299;28;11569;-75
2023/04/09 08:54:07;;;;;;;;;39.25;35.25;;;;;;;;5048997;28;11512;-74
2023/04/09 08:56:35;;;;;;;;;39.00;36.75;;;;;;;;5049194;28;11952;-73
2023/04/09 08:59:02;;;;;;;;;47.50;40.50;;;;;;;;5049155;28;10905;-74
2023/04/09 09:01:31;;;;;;;;;44.75;39.00;;;;;;;;5046537;28;10895;-72
2023/04/09 09:04:00;;;;;;;;;40.75;35.00;;;;;;;;5049323;28;10676;-72
2023/04/09 09:06:30;;;;;;;;;37.75;34.25;;;;;;;;5048779;28;10579;-72
2023/04/09 09:09:07;;;;;;;;;41.00;37.00;;;;;;;;5049322;28;10588;-72
2023/04/09 09:11:35;;;;;;;;;45.50;36.25;;;;;;;;5050283;28;10519;-74
2023/04/09 09:14:03;;;;;;;;;46.50;39.00;;;;;;;;5052884;28;10554;-73
2023/04/09 09:16:32;;;;;;;;;40.00;33.50;;;;;;;;5041896;28;10530;-73
2023/04/09 09:18:59;;;;;;;;;41.50;35.25;;;;;;;;5048727;28;11350;-73
2023/04/09 09:21:28;;;;;;;;;35.50;33.75;;;;;;;;5048280;28;10218;-74
2023/04/09 09:23:56;;;;;;;;;43.00;37.50;;;;;;;;5048030;28;10821;-74
2023/04/09 09:26:26;;;;;;;;;45.75;37.75;;;;;;;;5048013;28;10260;-73
2023/04/09 09:28:53;;;;;;;;;38.25;35.25;;;;;;;;5048535;28;10139;-73
2023/04/09 09:31:22;;;;;;;;;38.25;33.75;;;;;;;;5047520;28;10663;-73
2023/04/09 09:33:50;;;;;;;;;33.00;33.00;;;;;;;;5048374;28;9910;-73
2023/04/09 09:36:31;;;;;;;;;28.25;26.00;;;;;;;;5047989;28;9717;-75
2023/04/09 09:39:02;;;;;;;;;31.50;31.50;;;;;;;;5048525;28;9475;-72
2023/04/09 09:41:30;;;;;;;;;36.00;33.25;;;;;;;;5047756;28;9498;-74
2023/04/09 09:43:57;;;;;;;;;33.67;31.67;;;;;;;;5048307;28;9558;-75
2023/04/09 09:46:27;;;;;;;;;25.00;25.00;;;;;;;;5047854;28;9829;-76
2023/04/09 09:48:54;;;;;;;;;34.67;28.67;;;;;;;;5048099;28;9177;-74
2023/04/09 09:51:27;;;;;;;;;29.25;28.00;;;;;;;;5047568;28;9091;-73
2023/04/09 09:53:56;;;;;;;;;24.75;24.25;;;;;;;;5048020;28;8846;-73
2023/04/09 09:56:31;;;;;;;;;33.00;29.25;;;;;;;;5047709;28;8854;-75
2023/04/09 09:59:06;;;;;;;;;34.00;30.75;;;;;;;;5047859;28;8849;-73
2023/04/09 10:01:34;;;;;;;;;28.00;26.50;;;;;;;;5047452;28;8807;-73
2023/04/09 10:04:04;;;;;;;;;18.25;18.25;;;;;;;;5048123;28;8862;-73
2023/04/09 10:06:34;;;;;;;;;28.50;26.50;;;;;;;;5047033;28;8873;-73
2023/04/09 10:09:05;;;;;;;;;24.25;24.00;;;;;;;;5048090;28;8894;-73
2023/04/09 10:11:33;;;;;;;;;34.50;30.00;;;;;;;;5047668;28;8862;-73
2023/04/09 10:14:03;;;;;;;;;21.50;20.25;;;;;;;;5047387;28;8858;-73
2023/04/09 10:16:31;;;;;;;;;28.00;26.75;;;;;;;;5048286;28;8981;-73
2023/04/09 10:19:00;;;;;;;;;28.00;28.00;;;;;;;;5047557;28;8863;-73
2023/04/09 10:21:39;;;;;;;;;32.00;31.50;;;;;;;;5047559;28;8985;-73
2023/04/09 10:24:06;;;;;;;;;28.00;26.25;;;;;;;;5036043;28;8855;-73
2023/04/09 10:26:35;;;;;;;;;30.50;30.50;;;;;;;;5046865;28;8873;-73
2023/04/09 10:29:07;;;;;;;;;30.75;29.50;;;;;;;;5047855;28;8871;-73
2023/04/09 10:31:53;;;;;;;;;26.25;24.50;;;;;;;;5046364;28;8798;-73
2023/04/09 10:34:23;;;;;;;;;29.00;25.25;;;;;;;;5047004;28;8870;-73
2023/04/09 10:36:53;;;;;;;;;16.50;15.75;;;;;;;;5047468;28;8867;-74
2023/04/09 10:39:20;;;;;;;;;14.00;13.25;;;;;;;;5047509;28;8896;-73
2023/04/09 10:41:49;;;;;;;;;18.75;17.75;;;;;;;;5047186;28;9661;-73
2023/04/09 10:44:25;;;;;;;;;24.50;23.00;;;;;;;;5047013;28;8870;-73
2023/04/09 10:46:53;;;;;;;;;21.75;20.25;;;;;;;;5047190;28;9684;-73
2023/04/09 10:49:22;;;;;;;;;16.75;14.00;;;;;;;;5047356;28;8845;-73
2023/04/09 10:51:52;;;;;;;;;17.75;17.75;;;;;;;;5047599;28;8903;-73
2023/04/09 10:54:38;;;;;;;;;26.00;22.50;;;;;;;;5047625;28;8851;-73
2023/04/09 10:57:13;;;;;;;;;17.75;17.75;;;;;;;;5047946;28;8863;-73
2023/04/09 10:59:44;;;;;;;;;14.50;12.50;;;;;;;;5035802;28;8850;-74
2023/04/09 11:02:51;;;;;;;;;17.50;17.00;;;;;;;;5046803;28;8831;-73
2023/04/09 11:05:28;;;;;;;;;23.25;19.50;;;;;;;;5048053;28;8854;-73
2023/04/09 11:07:58;;;;;;;;;18.25;16.50;;;;;;;;5040174;28;8981;-73
2023/04/09 11:10:25;;;;;;;;;15.75;14.75;;;;;;;;5037687;28;8881;-73
2023/04/09 11:12:53;;;;;;;;;15.00;15.00;;;;;;;;5037751;28;8862;-74
2023/04/09 11:15:22;;;;;;;;;12.50;12.50;;;;;;;;5045320;28;8934;-73
2023/04/09 11:17:50;;;;;;;;;16.75;16.00;;;;;;;;5046966;28;9001;-73
2023/04/09 11:20:20;;;;;;;;;15.75;13.25;;;;;;;;5039720;28;8855;-73
2023/04/09 11:22:47;;;;;;;;;11.75;11.75;;;;;;;;5029157;28;8829;-73
2023/04/09 11:25:19;;;;;;;;;13.00;11.25;;;;;;;;5044133;28;8838;-73
2023/04/09 11:27:47;;;;;;;;;12.50;10.75;;;;;;;;5046416;28;8864;-73
2023/04/09 11:30:14;;;;;;;;;13.50;12.25;;;;;;;;5046333;28;8984;-72
2023/04/09 11:32:43;;;;;;;;;11.50;10.50;;;;;;;;5046991;28;8843;-73
2023/04/09 11:35:14;;;;;;;;;12.50;11.00;;;;;;;;5049782;28;8870;-73
2023/04/09 11:37:42;;;;;;;;;9.75;9.75;;;;;;;;5043541;28;8968;-73
2023/04/09 11:40:16;;;;;;;;;10.75;10.75;;;;;;;;5050710;28;8866;-73
2023/04/09 11:42:44;;;;;;;;;9.00;9.00;;;;;;;;5050483;28;8858;-73
2023/04/09 11:45:12;;;;;;;;;9.20;9.20;;;;;;;;5050436;28;8862;-74
2023/04/09 11:47:41;;;;;;;;;12.80;11.00;;;;;;;;5049888;28;9625;-74
2023/04/09 11:50:10;;;;;;;;;10.00;10.00;;;;;;;;5050619;28;9436;-74
2023/04/09 11:52:38;;;;;;;;;10.00;8.80;;;;;;;;5042621;28;8832;-74
2023/04/09 11:55:06;;;;;;;;;9.40;9.40;;;;;;;;5050448;28;8949;-74
2023/04/09 11:57:41;;;;;;;;;7.60;7.60;;;;;;;;5049831;28;8896;-74
2023/04/09 12:00:12;;;;;;;;;7.40;7.40;;;;;;;;5049616;28;8874;-73
2023/04/09 12:02:42;;;;;;;;;8.00;8.00;;;;;;;;5049933;28;8842;-74
2023/04/09 12:05:11;;;;;;;;;8.80;8.80;;;;;;;;5049703;28;8862;-74
2023/04/09 12:07:38;;;;;;;;;9.20;8.00;;;;;;;;5048975;28;8858;-74
2023/04/09 12:10:08;;;;;;;;;7.60;7.60;;;;;;;;5050144;28;8853;-74
2023/04/09 12:12:43;;;;;;;;;8.00;8.00;;;;;;;;5050125;28;8871;-74
2023/04/09 12:15:32;;;;;;;;;9.20;9.20;;;;;;;;5049880;28;8874;-73
2023/04/09 12:18:01;;;;;;;;;9.80;9.00;;;;;;;;5050329;28;8851;-73
2023/04/09 12:20:30;;;;;;;;;7.60;6.20;;;;;;;;5049667;28;9597;-74
2023/04/09 12:22:58;;;;;;;;;7.20;7.20;;;;;;;;5049774;28;8874;-74
2023/04/09 12:25:26;;;;;;;;;8.60;7.00;;;;;;;;5049712;28;8838;-74
2023/04/09 12:27:54;;;;;;;;;8.00;8.00;;;;;;;;5049732;28;8869;-74
2023/04/09 12:30:21;;;;;;;;;8.60;8.60;;;;;;;;5048953;28;8851;-74
2023/04/09 12:32:49;;;;;;;;;8.20;8.20;;;;;;;;5049186;28;9018;-73
2023/04/09 12:35:17;;;;;;;;;6.20;6.20;;;;;;;;5049273;28;9641;-74
2023/04/09 12:37:45;;;;;;;;;8.80;8.80;;;;;;;;5049250;28;8876;-74
2023/04/09 12:40:13;;;;;;;;;7.60;6.00;;;;;;;;5049879;28;8875;-74
2023/04/09 12:42:40;;;;;;;;;8.40;8.40;;;;;;;;5048965;28;9707;-74
2023/04/09 12:45:09;;;;;;;;;8.80;8.20;;;;;;;;5037776;28;8866;-74
2023/04/09 12:47:36;;;;;;;;;9.40;8.00;;;;;;;;5048966;28;8877;-74
2023/04/09 12:50:04;;;;;;;;;10.60;8.60;;;;;;;;5049486;28;8889;-74
2023/04/09 12:52:33;;;;;;;;;10.00;10.00;;;;;;;;5049868;28;8811;-73
2023/04/09 12:55:00;;;;;;;;;9.50;9.50;;;;;;;;5050534;28;8862;-74
2023/04/09 12:57:28;;;;;;;;;9.50;9.50;;;;;;;;5049964;28;8854;-73
2023/04/09 12:59:55;;;;;;;;;10.00;10.00;;;;;;;;5051022;28;8850;-73
2023/04/09 13:02:23;;;;;;;;;11.00;9.25;;;;;;;;5044984;28;8829;-74
2023/04/09 13:04:51;;;;;;;;;10.00;8.25;;;;;;;;5040677;28;8866;-74
2023/04/09 13:07:19;;;;;;;;;9.25;8.00;;;;;;;;5046766;28;8867;-74
2023/04/09 13:09:49;;;;;;;;;8.50;8.50;;;;;;;;5046217;28;8984;-74
2023/04/09 13:12:16;;;;;;;;;9.60;7.40;;;;;;;;5048032;28;8849;-74
2023/04/09 13:14:47;;;;;;;;;10.00;10.00;;;;;;;;5039452;28;9739;-74
2023/04/09 13:17:14;;;;;;;;;14.00;10.40;;;;;;;;5048217;28;8851;-73
2023/04/09 13:19:41;;;;;;;;;10.40;9.60;;;;;;;;5048474;28;8839;-74
2023/04/09 13:22:09;;;;;;;;;9.80;9.80;;;;;;;;5048190;28;8851;-74
2023/04/09 13:24:36;;;;;;;;;9.40;9.40;;;;;;;;5048722;28;8861;-74
2023/04/09 13:27:05;;;;;;;;;8.40;8.20;;;;;;;;5048023;28;8866;-74
2023/04/09 13:29:32;;;;;;;;;8.60;8.60;;;;;;;;5047874;28;8886;-74
2023/04/09 13:32:05;;;;;;;;;8.00;8.00;;;;;;;;5048259;28;8799;-74
2023/04/09 13:34:33;;;;;;;;;7.40;7.40;;;;;;;;5048148;28;8973;-74
2023/04/09 13:37:01;;;;;;;;;13.00;11.80;;;;;;;;5049080;28;8917;-74
2023/04/09 13:39:28;;;;;;;;;10.40;10.40;;;;;;;;5048150;28;8846;-74
2023/04/09 13:41:55;;;;;;;;;10.60;10.60;;;;;;;;5047840;28;8839;-74
2023/04/09 13:44:25;;;;;;;;;12.60;11.20;;;;;;;;5047635;28;8861;-74
2023/04/09 13:46:52;;;;;;;;;9.00;9.00;;;;;;;;5049499;28;8846;-74
2023/04/09 13:49:20;;;;;;;;;7.60;7.60;;;;;;;;5048210;28;8847;-74
2023/04/09 13:51:47;;;;;;;;;8.60;8.60;;;;;;;;5048054;28;8846;-74
2023/04/09 13:54:14;;;;;;;;;10.60;9.80;;;;;;;;5047845;28;8881;-74
2023/04/09 13:56:41;;;;;;;;;9.00;9.00;;;;;;;;5044058;28;8864;-74
2023/04/09 13:59:08;;;;;;;;;6.60;6.60;;;;;;;;5030390;28;8872;-74
2023/04/09 14:01:37;;;;;;;;;10.00;10.00;;;;;;;;5047448;28;8805;-74
2023/04/09 14:04:04;;;;;;;;;7.40;7.40;;;;;;;;5047426;28;8917;-73
2023/04/09 14:06:32;;;;;;;;;8.60;8.60;;;;;;;;5047700;28;8850;-74
2023/04/09 14:08:59;;;;;;;;;8.60;8.60;;;;;;;;5047678;28;8846;-74
2023/04/09 14:11:26;;;;;;;;;9.60;8.80;;;;;;;;5047734;28;8863;-74
2023/04/09 14:13:53;;;;;;;;;8.80;8.80;;;;;;;;5047331;28;8850;-74
2023/04/09 14:16:21;;;;;;;;;10.40;10.40;;;;;;;;5047978;28;8853;-73
2023/04/09 14:18:49;;;;;;;;;7.00;7.00;;;;;;;;5047109;28;9678;-74
2023/04/09 14:21:17;;;;;;;;;8.80;8.80;;;;;;;;5047466;28;8850;-73
2023/04/09 14:23:44;;;;;;;;;10.60;10.60;;;;;;;;5046944;28;8875;-74
2023/04/09 14:26:11;;;;;;;;;8.80;8.20;;;;;;;;5047993;28;8858;-74
2023/04/09 14:28:38;;;;;;;;;9.60;7.60;;;;;;;;5046884;28;8858;-74
2023/04/09 14:31:06;;;;;;;;;10.20;10.20;;;;;;;;5047079;28;8793;-74
2023/04/09 14:33:33;;;;;;;;;11.20;11.20;;;;;;;;5042184;28;8847;-74